Time;durP1;ratioP1;P1;durP2;ratioP2;P2;SDS_P1;SDS_P2;PMS_P1;PMS_P2;Temp;Humidity;BMP_temperature;BMP_pressure;BME280_temperature;BME280_humidity;BME280_pressure;Samples;Min_cycle;Max_cycle;Signal;HPM_P1;HPM_P2
2022/11/26 00:01:20;;;;;;;;;;;;;;;;;;4990698;28;19944;-67
2022/11/26 00:03:47;;;;;;;;;;;;;;;;;;4974032;28;19936;-66
2022/11/26 00:06:13;;;;;;;;;;;;;;;;;;4990217;28;19928;-71
2022/11/26 00:08:39;;;;;;;;;;;;;;;;;;4983451;28;20168;-66
2022/11/26 00:11:05;;;;;;;;;;;;;;;;;;4978716;28;19988;-67
2022/11/26 00:13:31;;;;;;;;;;;;;;;;;;4972455;28;19984;-66
2022/11/26 00:15:57;;;;;;;;;;;;;;;;;;4993229;28;19921;-66
2022/11/26 00:18:25;;;;;;;;;;;;;;;;;;4993937;28;20401;-67
2022/11/26 00:20:51;;;;;;;;;;;;;;;;;;4975169;28;19968;-66
2022/11/26 00:23:17;;;;;;;;;;;;;;;;;;4993646;28;19921;-67
2022/11/26 00:25:43;;;;;;;;;;;;;;;;;;4986723;28;20326;-67
2022/11/26 00:28:09;;;;;;;;;;;;;;;;;;4991729;28;20275;-67
2022/11/26 00:30:34;;;;;;;;;;;;;;;;;;4996259;28;20303;-67
2022/11/26 00:33:00;;;;;;;;;;;;;;;;;;4992371;28;19921;-67
2022/11/26 00:35:26;;;;;;;;;;;;;;;;;;4973880;28;19922;-69
2022/11/26 00:37:52;;;;;;;;;;;;;;;;;;4993599;28;19974;-67
2022/11/26 00:40:18;;;;;;;;;;;;;;;;;;4976174;28;19967;-66
2022/11/26 00:42:44;;;;;;;;;;;;;;;;;;4991520;28;19965;-66
2022/11/26 00:45:10;;;;;;;;;;;;;;;;;;4991011;28;19921;-69
2022/11/26 00:47:36;;;;;;;;;;;;;;;;;;4987654;28;20343;-67
2022/11/26 00:50:02;;;;;;;;;;;;;;;;;;4992320;28;19932;-67
2022/11/26 00:52:28;;;;;;;;;;;;;;;;;;4992934;28;20282;-67
2022/11/26 00:54:54;;;;;;;;;;;;;;;;;;5000397;28;19921;-67
2022/11/26 00:57:20;;;;;;;;;;;;;;;;;;4997714;28;20418;-66
2022/11/26 00:59:46;;;;;;;;;;;;;;;;;;4991016;28;19937;-66
2022/11/26 01:02:12;;;;;;;;;;;;;;;;;;4990319;28;20292;-66
2022/11/26 01:04:38;;;;;;;;;;;;;;;;;;4994202;28;19921;-66
2022/11/26 01:07:04;;;;;;;;;;;;;;;;;;4975233;28;20420;-66
2022/11/26 01:09:30;;;;;;;;;;;;;;;;;;4987451;28;19934;-66
2022/11/26 01:11:56;;;;;;;;;;;;;;;;;;4988841;28;19929;-67
2022/11/26 01:14:21;;;;;;;;;;;;;;;;;;4990776;28;20001;-67
2022/11/26 01:16:47;;;;;;;;;;;;;;;;;;4985939;28;19922;-67
2022/11/26 01:19:13;;;;;;;;;;;;;;;;;;4986648;28;20013;-66
2022/11/26 01:21:39;;;;;;;;;;;;;;;;;;4978629;28;19977;-67
2022/11/26 01:24:05;;;;;;;;;;;;;;;;;;4989463;28;19922;-68
2022/11/26 01:26:31;;;;;;;;;;;;;;;;;;4988683;28;20053;-67
2022/11/26 01:28:57;;;;;;;;;;;;;;;;;;4987790;28;19922;-68
2022/11/26 01:31:23;;;;;;;;;;;;;;;;;;4989934;28;20400;-66
2022/11/26 01:33:49;;;;;;;;;;;;;;;;;;4991880;28;19922;-68
2022/11/26 01:36:15;;;;;;;;;;;;;;;;;;4992724;28;20290;-66
2022/11/26 01:38:41;;;;;;;;;;;;;;;;;;4991064;28;19937;-66
2022/11/26 01:41:07;;;;;;;;;;;;;;;;;;4989566;28;19922;-67
2022/11/26 01:43:33;;;;;;;;;;;;;;;;;;4989826;28;20015;-66
2022/11/26 01:45:59;;;;;;;;;;;;;;;;;;5012490;28;19921;-67
2022/11/26 01:48:25;;;;;;;;;;;;;;;;;;5009841;28;20390;-67
2022/11/26 01:50:51;;;;;;;;;;;;;;;;;;4991533;28;19925;-66
2022/11/26 01:53:17;;;;;;;;;;;;;;;;;;4985729;28;19929;-68
2022/11/26 01:55:43;;;;;;;;;;;;;;;;;;4992520;28;19921;-68
2022/11/26 01:58:08;;;;;;;;;;;;;;;;;;4992321;28;19922;-67
2022/11/26 02:00:34;;;;;;;;;;;;;;;;;;4991339;28;19922;-66
2022/11/26 02:03:00;;;;;;;;;;;;;;;;;;5001349;28;19922;-66
2022/11/26 02:05:26;;;;;;;;;;;;;;;;;;4992749;28;19925;-66
2022/11/26 02:07:52;;;;;;;;;;;;;;;;;;4991663;28;20029;-68
2022/11/26 02:10:18;;;;;;;;;;;;;;;;;;4997364;28;19927;-66
2022/11/26 02:12:44;;;;;;;;;;;;;;;;;;4991810;28;19969;-67
2022/11/26 02:15:10;;;;;;;;;;;;;;;;;;4995037;28;19961;-67
2022/11/26 02:17:36;;;;;;;;;;;;;;;;;;4988827;28;20402;-68
2022/11/26 02:20:02;;;;;;;;;;;;;;;;;;4983362;28;19960;-68
2022/11/26 02:22:28;;;;;;;;;;;;;;;;;;4975007;28;19961;-67
2022/11/26 02:24:54;;;;;;;;;;;;;;;;;;4991488;28;19921;-67
2022/11/26 02:27:20;;;;;;;;;;;;;;;;;;4999626;28;19980;-67
2022/11/26 02:29:46;;;;;;;;;;;;;;;;;;4998288;28;19922;-67
2022/11/26 02:32:12;;;;;;;;;;;;;;;;;;4991055;28;19925;-67
2022/11/26 02:34:38;;;;;;;;;;;;;;;;;;4988311;28;19976;-67
2022/11/26 02:37:04;;;;;;;;;;;;;;;;;;4999024;28;19937;-66
2022/11/26 02:39:30;;;;;;;;;;;;;;;;;;4993841;28;20044;-66
2022/11/26 02:41:56;;;;;;;;;;;;;;;;;;4976084;28;20337;-67
2022/11/26 02:44:22;;;;;;;;;;;;;;;;;;4978009;28;19922;-67
2022/11/26 02:46:49;;;;;;;;;;;;;;;;;;4974108;28;20047;-67
2022/11/26 02:49:14;;;;;;;;;;;;;;;;;;5000712;28;19929;-68
2022/11/26 02:51:41;;;;;;;;;;;;;;;;;;4996445;28;19926;-67
2022/11/26 02:54:07;;;;;;;;;;;;;;;;;;4972793;28;20343;-66
2022/11/26 02:56:33;;;;;;;;;;;;;;;;;;4975059;28;19961;-67
2022/11/26 02:58:59;;;;;;;;;;;;;;;;;;4987362;28;19976;-67
2022/11/26 03:01:28;;;;;;;;;;;;;;;;;;4988232;28;19922;-67
2022/11/26 03:03:53;;;;;;;;;;;;;;;;;;4982093;28;20409;-67
2022/11/26 03:06:19;;;;;;;;;;;;;;;;;;4972605;28;20000;-66
2022/11/26 03:08:46;;;;;;;;;;;;;;;;;;4993625;28;19968;-68
2022/11/26 03:11:18;;;;;;;;;;;;;;;;;;4986704;28;19932;-68
2022/11/26 03:13:44;;;;;;;;;;;;;;;;;;5013144;28;20321;-66
2022/11/26 03:16:10;;;;;;;;;;;;;;;;;;5010616;28;19928;-67
2022/11/26 03:18:36;;;;;;;;;;;;;;;;;;4992147;28;19917;-67
2022/11/26 03:21:02;;;;;;;;;;;;;;;;;;5009595;28;19921;-66
2022/11/26 03:23:28;;;;;;;;;;;;;;;;;;5011771;28;19927;-67
2022/11/26 03:25:54;;;;;;;;;;;;;;;;;;5006005;28;20293;-67
2022/11/26 03:30:48;;;;;;;;;;;;;;;;;;5194267;22;19961;-73
2022/11/26 03:33:13;;;;;;;;;;;;;;;;;;5011529;28;19983;-73
2022/11/26 03:35:39;;;;;;;;;;;;;;;;;;5026445;28;20302;-72
2022/11/26 03:38:05;;;;;;;;;;;;;;;;;;5002234;28;19990;-73
2022/11/26 03:40:31;;;;;;;;;;;;;;;;;;4995892;28;20448;-73
2022/11/26 03:42:57;;;;;;;;;;;;;;;;;;5029561;28;19980;-73
2022/11/26 03:45:23;;;;;;;;;;;;;;;;;;5037110;23;19932;-73
2022/11/26 03:47:49;;;;;;;;;;;;;;;;;;4988109;28;19957;-72
2022/11/26 03:50:15;;;;;;;;;;;;;;;;;;5019789;28;19921;-73
2022/11/26 03:52:41;;;;;;;;;;;;;;;;;;5024171;28;19922;-73
2022/11/26 03:55:07;;;;;;;;;;;;;;;;;;5002299;28;19928;-74
2022/11/26 03:57:33;;;;;;;;;;;;;;;;;;4979749;28;19922;-73
2022/11/26 03:59:58;;;;;;;;;;;;;;;;;;5022682;28;19936;-73
2022/11/26 04:02:24;;;;;;;;;;;;;;;;;;5018065;28;19928;-72
2022/11/26 04:04:50;;;;;;;;;;;;;;;;;;5001305;28;20433;-72
2022/11/26 04:07:16;;;;;;;;;;;;;;;;;;4998329;28;20003;-73
2022/11/26 04:09:42;;;;;;;;;;;;;;;;;;4997098;28;20007;-74
2022/11/26 04:12:08;;;;;;;;;;;;;;;;;;5023861;28;19968;-73
2022/11/26 04:14:34;;;;;;;;;;;;;;;;;;5029359;28;20334;-74
2022/11/26 04:17:00;;;;;;;;;;;;;;;;;;4990690;28;19987;-73
2022/11/26 04:19:26;;;;;;;;;;;;;;;;;;5019479;28;20285;-72
2022/11/26 04:21:52;;;;;;;;;;;;;;;;;;5027445;28;22270;-73
2022/11/26 04:24:18;;;;;;;;;;;;;;;;;;4979252;28;19921;-73
2022/11/26 04:26:44;;;;;;;;;;;;;;;;;;5019123;28;20397;-72
2022/11/26 04:29:09;;;;;;;;;;;;;;;;;;5024402;28;19925;-73
2022/11/26 04:31:35;;;;;;;;;;;;;;;;;;5008946;28;19926;-73
2022/11/26 04:34:01;;;;;;;;;;;;;;;;;;5002595;28;20240;-73
2022/11/26 04:36:27;;;;;;;;;;;;;;;;;;4976456;28;19929;-74
2022/11/26 04:38:53;;;;;;;;;;;;;;;;;;5009932;28;20386;-73
2022/11/26 04:41:19;;;;;;;;;;;;;;;;;;4993456;28;19925;-73
2022/11/26 04:43:45;;;;;;;;;;;;;;;;;;4994441;28;19928;-73
2022/11/26 04:46:11;;;;;;;;;;;;;;;;;;4968987;28;19921;-74
2022/11/26 04:48:37;;;;;;;;;;;;;;;;;;4985031;28;19928;-73
2022/11/26 04:51:03;;;;;;;;;;;;;;;;;;5004312;28;19922;-73
2022/11/26 04:53:29;;;;;;;;;;;;;;;;;;5009381;28;19922;-73
2022/11/26 04:55:54;;;;;;;;;;;;;;;;;;5008126;28;19968;-71
2022/11/26 04:58:20;;;;;;;;;;;;;;;;;;5008347;28;20389;-73
2022/11/26 05:00:46;;;;;;;;;;;;;;;;;;4976523;28;19922;-73
2022/11/26 05:03:12;;;;;;;;;;;;;;;;;;4990461;28;19925;-73
2022/11/26 05:05:38;;;;;;;;;;;;;;;;;;4991504;28;20357;-73
2022/11/26 05:08:04;;;;;;;;;;;;;;;;;;5001683;28;20469;-73
2022/11/26 05:10:30;;;;;;;;;;;;;;;;;;4990067;28;19932;-73
2022/11/26 05:12:56;;;;;;;;;;;;;;;;;;5007979;28;19921;-73
2022/11/26 05:15:22;;;;;;;;;;;;;;;;;;4989956;28;20367;-71
2022/11/26 05:17:48;;;;;;;;;;;;;;;;;;5003628;28;19921;-72
2022/11/26 05:20:14;;;;;;;;;;;;;;;;;;4987963;28;19928;-74
2022/11/26 05:22:40;;;;;;;;;;;;;;;;;;4998549;28;20360;-74
2022/11/26 05:25:06;;;;;;;;;;;;;;;;;;5007448;28;19969;-73
2022/11/26 05:27:32;;;;;;;;;;;;;;;;;;4993367;28;19976;-73
2022/11/26 05:29:58;;;;;;;;;;;;;;;;;;4989971;28;19948;-72
2022/11/26 05:32:23;;;;;;;;;;;;;;;;;;4971006;28;19928;-73
2022/11/26 05:34:49;;;;;;;;;;;;;;;;;;4986233;28;19928;-73
2022/11/26 05:37:15;;;;;;;;;;;;;;;;;;5008076;28;19926;-73
2022/11/26 05:39:41;;;;;;;;;;;;;;;;;;5011310;28;19917;-72
2022/11/26 05:42:07;;;;;;;;;;;;;;;;;;4998507;28;19921;-72
2022/11/26 05:44:33;;;;;;;;;;;;;;;;;;5001027;28;19922;-73
2022/11/26 05:46:59;;;;;;;;;;;;;;;;;;5008410;28;19925;-72
2022/11/26 05:49:25;;;;;;;;;;;;;;;;;;5009932;28;19960;-73
2022/11/26 05:51:51;;;;;;;;;;;;;;;;;;5014865;28;20381;-73
2022/11/26 05:54:17;;;;;;;;;;;;;;;;;;5007659;28;21058;-71
2022/11/26 05:56:43;;;;;;;;;;;;;;;;;;5001704;28;19929;-74
2022/11/26 05:59:09;;;;;;;;;;;;;;;;;;5010634;28;19921;-72
2022/11/26 06:01:34;;;;;;;;;;;;;;;;;;5009027;28;20004;-72
2022/11/26 06:04:00;;;;;;;;;;;;;;;;;;5005975;28;19928;-72
2022/11/26 06:06:26;;;;;;;;;;;;;;;;;;4994908;28;19976;-73
2022/11/26 06:08:52;;;;;;;;;;;;;;;;;;5003912;28;20008;-74
2022/11/26 06:11:18;;;;;;;;;;;;;;;;;;4995780;28;19926;-73
2022/11/26 06:13:44;;;;;;;;;;;;;;;;;;4995031;28;19924;-74
2022/11/26 06:16:10;;;;;;;;;;;;;;;;;;5010764;28;19922;-73
2022/11/26 06:18:36;;;;;;;;;;;;;;;;;;5006461;28;19936;-73
2022/11/26 06:21:02;;;;;;;;;;;;;;;;;;4989427;28;19968;-74
2022/11/26 06:23:28;;;;;;;;;;;;;;;;;;4985089;28;19929;-73
2022/11/26 06:25:54;;;;;;;;;;;;;;;;;;5003912;28;19929;-73
2022/11/26 06:28:20;;;;;;;;;;;;;;;;;;4991302;28;19925;-73
2022/11/26 06:30:46;;;;;;;;;;;;;;;;;;4992943;28;19921;-73
2022/11/26 06:33:12;;;;;;;;;;;;;;;;;;4988987;28;19922;-74
2022/11/26 06:35:38;;;;;;;;;;;;;;;;;;5011385;28;19968;-73
2022/11/26 06:38:04;;;;;;;;;;;;;;;;;;5014690;28;19929;-73
2022/11/26 06:40:30;;;;;;;;;;;;;;;;;;5012784;28;20370;-73
2022/11/26 06:42:56;;;;;;;;;;;;;;;;;;4990747;28;19936;-73
2022/11/26 06:45:21;;;;;;;;;;;;;;;;;;5010103;28;19922;-72
2022/11/26 06:47:47;;;;;;;;;;;;;;;;;;5012857;28;19930;-73
2022/11/26 06:50:13;;;;;;;;;;;;;;;;;;4993071;28;19921;-73
2022/11/26 06:52:39;;;;;;;;;;;;;;;;;;4993549;28;19952;-73
2022/11/26 06:55:05;;;;;;;;;;;;;;;;;;5011113;28;19925;-75
2022/11/26 06:57:31;;;;;;;;;;;;;;;;;;5008108;28;19956;-73
2022/11/26 06:59:57;;;;;;;;;;;;;;;;;;5010929;28;19976;-73
2022/11/26 07:02:23;;;;;;;;;;;;;;;;;;4992503;28;19925;-73
2022/11/26 07:04:49;;;;;;;;;;;;;;;;;;5012588;28;20304;-72
2022/11/26 07:07:15;;;;;;;;;;;;;;;;;;4990549;28;20468;-73
2022/11/26 07:09:41;;;;;;;;;;;;;;;;;;4992813;28;19961;-73
2022/11/26 07:12:06;;;;;;;;;;;;;;;;;;4996683;28;19953;-73
2022/11/26 07:14:32;;;;;;;;;;;;;;;;;;5003520;28;19992;-74
2022/11/26 07:16:58;;;;;;;;;;;;;;;;;;4994360;28;20394;-74
2022/11/26 07:19:24;;;;;;;;;;;;;;;;;;5012668;28;20292;-73
2022/11/26 07:21:50;;;;;;;;;;;;;;;;;;5009530;28;20023;-74
2022/11/26 07:24:16;;;;;;;;;;;;;;;;;;4971729;28;19965;-74
2022/11/26 07:26:42;;;;;;;;;;;;;;;;;;5010484;28;19921;-74
2022/11/26 07:29:08;;;;;;;;;;;;;;;;;;4989374;28;19921;-73
2022/11/26 07:31:35;;;;;;;;;;;;;;;;;;5007422;28;19921;-74
2022/11/26 07:34:01;;;;;;;;;;;;;;;;;;4988011;28;19921;-74
2022/11/26 07:36:27;;;;;;;;;;;;;;;;;;4992101;28;19930;-74
2022/11/26 07:38:53;;;;;;;;;;;;;;;;;;4988068;28;19930;-73
2022/11/26 07:41:19;;;;;;;;;;;;;;;;;;4974537;28;21446;-72
2022/11/26 07:43:44;;;;;;;;;;;;;;;;;;5001606;28;19922;-72
2022/11/26 07:46:10;;;;;;;;;;;;;;;;;;5005027;28;19956;-72
2022/11/26 07:48:38;;;;;;;;;;;;;;;;;;4996098;28;20281;-74
2022/11/26 07:51:04;;;;;;;;;;;;;;;;;;5012159;28;19930;-73
2022/11/26 07:53:30;;;;;;;;;;;;;;;;;;5011886;28;20326;-73
2022/11/26 07:55:56;;;;;;;;;;;;;;;;;;5004996;28;19929;-74
2022/11/26 07:58:22;;;;;;;;;;;;;;;;;;5004027;28;19977;-73
2022/11/26 08:00:48;;;;;;;;;;;;;;;;;;4995021;28;19922;-73
2022/11/26 08:03:14;;;;;;;;;;;;;;;;;;5002318;28;20000;-72
2022/11/26 08:05:40;;;;;;;;;;;;;;;;;;5009048;28;19921;-72
2022/11/26 08:08:06;;;;;;;;;;;;;;;;;;5013839;28;19932;-71
2022/11/26 08:10:31;;;;;;;;;;;;;;;;;;5007126;28;19944;-72
2022/11/26 08:12:57;;;;;;;;;;;;;;;;;;4996049;28;19922;-72
2022/11/26 08:15:23;;;;;;;;;;;;;;;;;;5004341;28;19921;-71
2022/11/26 08:17:49;;;;;;;;;;;;;;;;;;4993821;28;20252;-72
2022/11/26 08:20:15;;;;;;;;;;;;;;;;;;4978051;28;20383;-72
2022/11/26 08:22:41;;;;;;;;;;;;;;;;;;4996855;28;19929;-72
2022/11/26 08:25:07;;;;;;;;;;;;;;;;;;4995011;28;19922;-72
2022/11/26 08:27:33;;;;;;;;;;;;;;;;;;5013642;28;20000;-71
2022/11/26 08:29:59;;;;;;;;;;;;;;;;;;5005438;28;19921;-72
2022/11/26 08:32:25;;;;;;;;;;;;;;;;;;5005378;28;20021;-72
2022/11/26 08:34:51;;;;;;;;;;;;;;;;;;5002558;28;20000;-72
2022/11/26 08:37:16;;;;;;;;;;;;;;;;;;5012571;28;19921;-72
2022/11/26 08:39:42;;;;;;;;;;;;;;;;;;4980452;28;20004;-72
2022/11/26 08:42:08;;;;;;;;;;;;;;;;;;5004266;28;20386;-73
2022/11/26 08:44:34;;;;;;;;;;;;;;;;;;4992946;28;19976;-73
2022/11/26 08:47:00;;;;;;;;;;;;;;;;;;4963910;28;19917;-73
2022/11/26 08:49:26;;;;;;;;;;;;;;;;;;4994781;28;20043;-73
2022/11/26 08:51:52;;;;;;;;;;;;;;;;;;4993125;28;19975;-73
2022/11/26 08:54:18;;;;;;;;;;;;;;;;;;5009757;28;19921;-73
2022/11/26 08:56:44;;;;;;;;;;;;;;;;;;4992738;28;20007;-73
2022/11/26 08:59:10;;;;;;;;;;;;;;;;;;4977423;28;19965;-73
2022/11/26 09:01:36;;;;;;;;;;;;;;;;;;5012805;28;19929;-73
2022/11/26 09:04:01;;;;;;;;;;;;;;;;;;4961870;28;19921;-72
2022/11/26 09:06:27;;;;;;;;;;;;;;;;;;4997857;28;20286;-72
2022/11/26 09:09:12;;;;;;;;;;;;;;;;;;4979283;28;19922;-72
2022/11/26 09:11:38;;;;;;;;;;;;;;;;;;4965293;28;19948;-72
2022/11/26 09:14:04;;;;;;;;;;;;;;;;;;4979309;28;19922;-72
2022/11/26 09:16:30;;;;;;;;;;;;;;;;;;4997173;28;19949;-72
2022/11/26 09:18:55;;;;;;;;;;;;;;;;;;4997216;28;19925;-72
2022/11/26 09:21:21;;;;;;;;;;;;;;;;;;4983986;28;20378;-73
2022/11/26 09:23:47;;;;;;;;;;;;;;;;;;4998037;28;20015;-73
2022/11/26 09:26:13;;;;;;;;;;;;;;;;;;4999183;28;20366;-72
2022/11/26 09:28:39;;;;;;;;;;;;;;;;;;5016726;28;19928;-73
2022/11/26 09:31:05;;;;;;;;;;;;;;;;;;5003347;28;20390;-72
2022/11/26 09:33:31;;;;;;;;;;;;;;;;;;5010656;28;20382;-72
2022/11/26 09:35:57;;;;;;;;;;;;;;;;;;4996679;28;19953;-72
2022/11/26 09:38:23;;;;;;;;;;;;;;;;;;4979340;28;19930;-72
2022/11/26 09:40:49;;;;;;;;;;;;;;;;;;4963051;28;19921;-72
2022/11/26 09:43:14;;;;;;;;;;;;;;;;;;5005940;28;19925;-73
2022/11/26 09:45:40;;;;;;;;;;;;;;;;;;5003936;28;20374;-73
2022/11/26 09:48:06;;;;;;;;;;;;;;;;;;5002977;28;19925;-72
2022/11/26 09:50:34;;;;;;;;;;;;;;;;;;5007936;28;19921;-73
2022/11/26 09:53:00;;;;;;;;;;;;;;;;;;5002723;28;19929;-73
2022/11/26 09:55:26;;;;;;;;;;;;;;;;;;5017531;28;19921;-72
2022/11/26 09:57:52;;;;;;;;;;;;;;;;;;5015995;28;19999;-72
2022/11/26 10:00:17;;;;;;;;;;;;;;;;;;5004066;28;19929;-73
2022/11/26 10:02:43;;;;;;;;;;;;;;;;;;5013395;28;19921;-72
2022/11/26 10:05:09;;;;;;;;;;;;;;;;;;4981573;28;19921;-72
2022/11/26 10:07:35;;;;;;;;;;;;;;;;;;5014804;28;19922;-72
2022/11/26 10:10:01;;;;;;;;;;;;;;;;;;4990244;28;19974;-73
2022/11/26 10:12:27;;;;;;;;;;;;;;;;;;4981214;28;19931;-73
2022/11/26 10:14:53;;;;;;;;;;;;;;;;;;5015006;28;19965;-72
2022/11/26 10:17:19;;;;;;;;;;;;;;;;;;4991226;28;20457;-72
2022/11/26 10:19:45;;;;;;;;;;;;;;;;;;4996996;28;19944;-71
2022/11/26 10:22:11;;;;;;;;;;;;;;;;;;5014666;28;19921;-71
2022/11/26 10:24:37;;;;;;;;;;;;;;;;;;5015000;28;20004;-72
2022/11/26 10:27:03;;;;;;;;;;;;;;;;;;4999829;28;19925;-72
2022/11/26 10:29:28;;;;;;;;;;;;;;;;;;5013570;28;20008;-72
2022/11/26 10:31:54;;;;;;;;;;;;;;;;;;4994087;28;20049;-72
2022/11/26 10:34:20;;;;;;;;;;;;;;;;;;5004213;28;19936;-71
2022/11/26 10:36:47;;;;;;;;;;;;;;;;;;4978701;28;19921;-72
2022/11/26 10:39:13;;;;;;;;;;;;;;;;;;5000021;28;20012;-72
2022/11/26 10:41:38;;;;;;;;;;;;;;;;;;4999548;28;19957;-72
2022/11/26 10:44:04;;;;;;;;;;;;;;;;;;5014647;28;19928;-71
2022/11/26 10:46:30;;;;;;;;;;;;;;;;;;5010152;28;19922;-72
2022/11/26 10:48:56;;;;;;;;;;;;;;;;;;5013928;28;20318;-72
2022/11/26 10:51:24;;;;;;;;;;;;;;;;;;5011389;28;19925;-72
2022/11/26 10:53:51;;;;;;;;;;;;;;;;;;5008177;28;20182;-72
2022/11/26 10:56:17;;;;;;;;;;;;;;;;;;5012637;28;19960;-72
2022/11/26 10:58:43;;;;;;;;;;;;;;;;;;5011712;28;20315;-71
2022/11/26 11:01:12;;;;;;;;;;;;;;;;;;5014811;28;19921;-71
2022/11/26 11:03:39;;;;;;;;;;;;;;;;;;5010738;28;20341;-72
2022/11/26 11:06:05;;;;;;;;;;;;;;;;;;5011282;28;19925;-72
2022/11/26 11:08:31;;;;;;;;;;;;;;;;;;5010969;28;19976;-72
2022/11/26 11:10:57;;;;;;;;;;;;;;;;;;4994790;28;20340;-71
2022/11/26 11:13:23;;;;;;;;;;;;;;;;;;5007617;28;20398;-72
2022/11/26 11:15:49;;;;;;;;;;;;;;;;;;5010425;28;19944;-72
2022/11/26 11:18:15;;;;;;;;;;;;;;;;;;5009430;28;19925;-72
2022/11/26 11:20:41;;;;;;;;;;;;;;;;;;5014167;28;19921;-71
2022/11/26 11:23:07;;;;;;;;;;;;;;;;;;5013309;28;19921;-72
2022/11/26 11:25:33;;;;;;;;;;;;;;;;;;5013152;28;19921;-72
2022/11/26 11:27:59;;;;;;;;;;;;;;;;;;5012953;28;20012;-72
2022/11/26 11:30:25;;;;;;;;;;;;;;;;;;5011557;28;19922;-72
2022/11/26 11:32:51;;;;;;;;;;;;;;;;;;5013475;28;19921;-72
2022/11/26 11:35:17;;;;;;;;;;;;;;;;;;4993308;28;20000;-72
2022/11/26 11:37:42;;;;;;;;;;;;;;;;;;4978671;28;19922;-71
2022/11/26 11:40:08;;;;;;;;;;;;;;;;;;4995284;28;20273;-72
2022/11/26 11:42:34;;;;;;;;;;;;;;;;;;5004856;28;20008;-72
2022/11/26 11:45:00;;;;;;;;;;;;;;;;;;5012420;28;19922;-72
2022/11/26 11:47:26;;;;;;;;;;;;;;;;;;4990848;28;19929;-72
2022/11/26 11:49:52;;;;;;;;;;;;;;;;;;5003016;28;19929;-72
2022/11/26 11:52:18;;;;;;;;;;;;;;;;;;5006877;28;19925;-72
2022/11/26 11:54:44;;;;;;;;;;;;;;;;;;5006230;28;20374;-72
2022/11/26 11:57:10;;;;;;;;;;;;;;;;;;5009397;28;19932;-72
2022/11/26 11:59:46;;;;;;;;;;;;;;;;;;5001677;28;19932;-72
2022/11/26 12:02:12;;;;;;;;;;;;;;;;;;4990391;28;20290;-72
2022/11/26 12:04:38;;;;;;;;;;;;;;;;;;5007380;28;19921;-72
2022/11/26 12:07:04;;;;;;;;;;;;;;;;;;4988053;28;19921;-73
2022/11/26 12:09:30;;;;;;;;;;;;;;;;;;4995376;28;19940;-73
2022/11/26 12:11:56;;;;;;;;;;;;;;;;;;4973684;28;19925;-73
2022/11/26 12:14:22;;;;;;;;;;;;;;;;;;5000155;28;19927;-72
2022/11/26 12:16:47;;;;;;;;;;;;;;;;;;5013511;28;20011;-73
2022/11/26 12:19:13;;;;;;;;;;;;;;;;;;4994815;28;19962;-72
2022/11/26 12:21:39;;;;;;;;;;;;;;;;;;4993268;28;19926;-72
2022/11/26 12:24:05;;;;;;;;;;;;;;;;;;5013774;28;19921;-73
2022/11/26 12:26:31;;;;;;;;;;;;;;;;;;4999140;28;19921;-72
2022/11/26 12:28:57;;;;;;;;;;;;;;;;;;4991863;28;20314;-73
2022/11/26 12:31:23;;;;;;;;;;;;;;;;;;4983574;28;19929;-73
2022/11/26 12:33:49;;;;;;;;;;;;;;;;;;4996700;28;19926;-73
2022/11/26 12:36:15;;;;;;;;;;;;;;;;;;5005103;28;19921;-72
2022/11/26 12:38:41;;;;;;;;;;;;;;;;;;4989701;28;20374;-72
2022/11/26 12:41:06;;;;;;;;;;;;;;;;;;5011563;28;19921;-72
2022/11/26 12:43:32;;;;;;;;;;;;;;;;;;5010661;28;19929;-72
2022/11/26 12:45:58;;;;;;;;;;;;;;;;;;4989016;28;19921;-72
2022/11/26 12:48:24;;;;;;;;;;;;;;;;;;4989993;28;19922;-73
2022/11/26 12:50:50;;;;;;;;;;;;;;;;;;5004942;28;19921;-72
2022/11/26 12:53:16;;;;;;;;;;;;;;;;;;5003867;28;19922;-72
2022/11/26 12:55:42;;;;;;;;;;;;;;;;;;5012506;28;19969;-73
2022/11/26 12:58:08;;;;;;;;;;;;;;;;;;4971591;28;19958;-73
2022/11/26 13:00:34;;;;;;;;;;;;;;;;;;5009417;28;19921;-73
2022/11/26 13:03:00;;;;;;;;;;;;;;;;;;4986609;28;19922;-73
2022/11/26 13:05:26;;;;;;;;;;;;;;;;;;5001012;28;19925;-73
2022/11/26 13:07:52;;;;;;;;;;;;;;;;;;5010054;28;19921;-72
2022/11/26 13:10:18;;;;;;;;;;;;;;;;;;5000220;28;19928;-72
2022/11/26 13:12:45;;;;;;;;;;;;;;;;;;5008833;28;19928;-72
2022/11/26 13:15:11;;;;;;;;;;;;;;;;;;5008250;28;19932;-73
2022/11/26 13:17:37;;;;;;;;;;;;;;;;;;5007916;28;20000;-72
2022/11/26 13:20:03;;;;;;;;;;;;;;;;;;4989254;28;20314;-72
2022/11/26 13:22:29;;;;;;;;;;;;;;;;;;4987486;28;20009;-72
2022/11/26 13:24:54;;;;;;;;;;;;;;;;;;5007001;28;19927;-72
2022/11/26 13:27:20;;;;;;;;;;;;;;;;;;5007081;28;19925;-72
2022/11/26 13:29:46;;;;;;;;;;;;;;;;;;5010147;28;19922;-73
2022/11/26 13:32:12;;;;;;;;;;;;;;;;;;4990220;28;19932;-73
2022/11/26 13:34:38;;;;;;;;;;;;;;;;;;5009582;28;19921;-72
2022/11/26 13:37:04;;;;;;;;;;;;;;;;;;5007778;28;19989;-73
2022/11/26 13:39:30;;;;;;;;;;;;;;;;;;5007948;28;19960;-73
2022/11/26 13:41:56;;;;;;;;;;;;;;;;;;4991074;28;19929;-73
2022/11/26 13:44:22;;;;;;;;;;;;;;;;;;4986183;28;20303;-73
2022/11/26 13:46:48;;;;;;;;;;;;;;;;;;5006349;28;19921;-73
2022/11/26 13:49:14;;;;;;;;;;;;;;;;;;4991675;28;19922;-73
2022/11/26 13:51:40;;;;;;;;;;;;;;;;;;4993215;28;19929;-72
2022/11/26 13:54:05;;;;;;;;;;;;;;;;;;5008296;28;19921;-72
2022/11/26 13:56:31;;;;;;;;;;;;;;;;;;5014277;28;19921;-72
2022/11/26 13:58:57;;;;;;;;;;;;;;;;;;5004063;28;19931;-74
2022/11/26 14:01:23;;;;;;;;;;;;;;;;;;4996587;28;19984;-72
2022/11/26 14:03:49;;;;;;;;;;;;;;;;;;5003151;28;19921;-73
2022/11/26 14:06:15;;;;;;;;;;;;;;;;;;4990695;28;19922;-73
2022/11/26 14:08:42;;;;;;;;;;;;;;;;;;4992304;28;19925;-73
2022/11/26 14:11:08;;;;;;;;;;;;;;;;;;4993315;28;19926;-73
2022/11/26 14:13:34;;;;;;;;;;;;;;;;;;5011908;28;19931;-73
2022/11/26 14:16:01;;;;;;;;;;;;;;;;;;4995318;28;19930;-73
2022/11/26 14:18:27;;;;;;;;;;;;;;;;;;5009927;28;20289;-72
2022/11/26 14:20:53;;;;;;;;;;;;;;;;;;5012980;28;19928;-71
2022/11/26 14:23:18;;;;;;;;;;;;;;;;;;4995933;28;19929;-72
2022/11/26 14:25:44;;;;;;;;;;;;;;;;;;5000924;28;19921;-71
2022/11/26 14:28:10;;;;;;;;;;;;;;;;;;5007409;28;20401;-71
2022/11/26 14:30:36;;;;;;;;;;;;;;;;;;4995996;28;19921;-72
2022/11/26 14:33:02;;;;;;;;;;;;;;;;;;5010768;28;19940;-72
2022/11/26 14:35:28;;;;;;;;;;;;;;;;;;5010533;28;20558;-72
2022/11/26 14:37:54;;;;;;;;;;;;;;;;;;5004987;28;19929;-72
2022/11/26 14:40:20;;;;;;;;;;;;;;;;;;5009731;28;19980;-72
2022/11/26 14:42:46;;;;;;;;;;;;;;;;;;5014270;28;19925;-72
2022/11/26 14:45:12;;;;;;;;;;;;;;;;;;5011178;28;19929;-72
2022/11/26 14:47:38;;;;;;;;;;;;;;;;;;5002827;28;20009;-71
2022/11/26 14:50:03;;;;;;;;;;;;;;;;;;4992647;28;20000;-72
2022/11/26 14:52:29;;;;;;;;;;;;;;;;;;5002499;28;19921;-72
2022/11/26 14:54:55;;;;;;;;;;;;;;;;;;5003937;28;19926;-71
2022/11/26 14:57:21;;;;;;;;;;;;;;;;;;4993040;28;19922;-72
2022/11/26 14:59:47;;;;;;;;;;;;;;;;;;5002076;28;19928;-72
2022/11/26 15:02:13;;;;;;;;;;;;;;;;;;5005383;28;19937;-71
2022/11/26 15:04:40;;;;;;;;;;;;;;;;;;5006108;28;20458;-71
2022/11/26 15:07:06;;;;;;;;;;;;;;;;;;5007458;28;19934;-72
2022/11/26 15:09:32;;;;;;;;;;;;;;;;;;5008358;28;19921;-72
2022/11/26 15:12:00;;;;;;;;;;;;;;;;;;4989989;28;19978;-74
2022/11/26 15:14:28;;;;;;;;;;;;;;;;;;5012314;28;19925;-73
2022/11/26 15:16:54;;;;;;;;;;;;;;;;;;4977488;28;19932;-72
2022/11/26 15:19:20;;;;;;;;;;;;;;;;;;5006159;28;19928;-72
2022/11/26 15:21:46;;;;;;;;;;;;;;;;;;5008368;28;19922;-73
2022/11/26 15:24:11;;;;;;;;;;;;;;;;;;5010806;28;19922;-75
2022/11/26 15:26:39;;;;;;;;;;;;;;;;;;5005652;28;19930;-74
2022/11/26 15:29:05;;;;;;;;;;;;;;;;;;4990075;28;19929;-74
2022/11/26 15:31:31;;;;;;;;;;;;;;;;;;4999096;28;20291;-74
2022/11/26 15:33:57;;;;;;;;;;;;;;;;;;5008603;28;20389;-74
2022/11/26 15:36:23;;;;;;;;;;;;;;;;;;5010759;28;19921;-73
2022/11/26 15:38:48;;;;;;;;;;;;;;;;;;5005219;28;19921;-74
2022/11/26 15:41:14;;;;;;;;;;;;;;;;;;4995925;28;19921;-74
2022/11/26 15:43:40;;;;;;;;;;;;;;;;;;4998967;28;19921;-74
2022/11/26 15:46:06;;;;;;;;;;;;;;;;;;5005873;28;19925;-74
2022/11/26 15:48:32;;;;;;;;;;;;;;;;;;5005056;28;19929;-74
2022/11/26 15:50:58;;;;;;;;;;;;;;;;;;5005290;28;20412;-74
2022/11/26 15:53:24;;;;;;;;;;;;;;;;;;5003754;28;20353;-74
2022/11/26 15:55:50;;;;;;;;;;;;;;;;;;5005730;28;20290;-74
2022/11/26 15:58:16;;;;;;;;;;;;;;;;;;4997351;28;19921;-74
2022/11/26 16:00:42;;;;;;;;;;;;;;;;;;5006841;28;19928;-74
2022/11/26 16:03:08;;;;;;;;;;;;;;;;;;4991579;28;20286;-73
2022/11/26 16:05:34;;;;;;;;;;;;;;;;;;4993378;28;20370;-73
2022/11/26 16:08:00;;;;;;;;;;;;;;;;;;4991737;28;19921;-72
2022/11/26 16:10:26;;;;;;;;;;;;;;;;;;5003697;28;19925;-73
2022/11/26 16:12:52;;;;;;;;;;;;;;;;;;5009838;28;20024;-72
2022/11/26 16:15:18;;;;;;;;;;;;;;;;;;5012038;28;19921;-72
2022/11/26 16:17:44;;;;;;;;;;;;;;;;;;4993086;28;20435;-73
2022/11/26 16:20:10;;;;;;;;;;;;;;;;;;5006978;28;19925;-73
2022/11/26 16:22:36;;;;;;;;;;;;;;;;;;4989363;28;20294;-73
2022/11/26 16:25:02;;;;;;;;;;;;;;;;;;5011388;28;19925;-73
2022/11/26 16:27:28;;;;;;;;;;;;;;;;;;4989325;28;19928;-73
2022/11/26 16:29:54;;;;;;;;;;;;;;;;;;4986639;28;19926;-73
2022/11/26 16:32:20;;;;;;;;;;;;;;;;;;5000860;28;19928;-73
2022/11/26 16:34:46;;;;;;;;;;;;;;;;;;5001044;28;19984;-73
2022/11/26 16:37:12;;;;;;;;;;;;;;;;;;5001850;28;19925;-73
2022/11/26 16:39:38;;;;;;;;;;;;;;;;;;5001588;28;20346;-73